createdAt,value
2018-04-23T00:00:30.955Z,1007.27
2018-04-23T00:01:30.973Z,1007.50
2018-04-23T00:02:30.995Z,1007.60
2018-04-23T00:03:31.021Z,1008.16
2018-04-23T00:04:31.039Z,1007.71
2018-04-23T00:05:31.060Z,1007.73
2018-04-23T00:06:31.080Z,1007.53
2018-04-23T00:07:31.100Z,1007.62
2018-04-23T00:08:31.121Z,1007.51
2018-04-23T00:09:31.168Z,1007.37
2018-04-23T00:10:31.171Z,1007.40
2018-04-23T00:11:31.183Z,1007.50
2018-04-23T00:12:31.203Z,1007.33
2018-04-23T00:13:31.227Z,1007.26
2018-04-23T00:14:31.246Z,1007.12
2018-04-23T00:15:31.270Z,1007.09
2018-04-23T00:16:31.312Z,1007.21
2018-04-23T00:17:31.309Z,1007.13
2018-04-23T00:18:31.329Z,1006.96
2018-04-23T00:19:31.352Z,1006.90
2018-04-23T00:20:31.369Z,1006.73
2018-04-23T00:21:31.391Z,1006.70
2018-04-23T00:22:31.414Z,1006.78
2018-04-23T00:23:31.436Z,1006.88
2018-04-23T00:24:31.456Z,1006.93
2018-04-23T00:25:31.485Z,1007.02
2018-04-23T00:26:31.496Z,1007.03
2018-04-23T00:27:31.522Z,1007.07
2018-04-23T00:28:31.540Z,1007.03
2018-04-23T00:29:31.560Z,1007.08
2018-04-23T00:30:31.581Z,1007.09
2018-04-23T00:31:31.600Z,1006.98
2018-04-23T00:32:31.626Z,1006.99
2018-04-23T00:33:31.645Z,1006.96
2018-04-23T00:34:31.664Z,1006.93
2018-04-23T00:35:31.690Z,1006.89
2018-04-23T00:36:31.704Z,1006.94
2018-04-23T00:37:31.727Z,1006.83
2018-04-23T00:38:31.748Z,1006.86
2018-04-23T00:39:31.771Z,1006.83
2018-04-23T00:40:31.800Z,1006.82
2018-04-23T00:41:31.809Z,1006.75
2018-04-23T00:42:31.835Z,1006.76
2018-04-23T00:43:31.858Z,1006.72
2018-04-23T00:44:31.873Z,1006.66
2018-04-23T00:45:31.893Z,1006.60
2018-04-23T00:46:31.915Z,1006.59
2018-04-23T00:47:31.940Z,1006.58
2018-04-23T00:48:31.959Z,1006.60
2018-04-23T00:49:31.979Z,1006.63
2018-04-23T00:50:31.999Z,1006.60
2018-04-23T00:51:32.020Z,1006.62
2018-04-23T00:52:32.038Z,1006.60
2018-04-23T00:53:32.064Z,1006.60
2018-04-23T00:54:32.087Z,1006.61
2018-04-23T00:55:32.098Z,1006.59
2018-04-23T00:56:32.127Z,1006.60
2018-04-23T00:57:32.143Z,1006.54
2018-04-23T00:58:32.174Z,1006.55
2018-04-23T00:59:32.182Z,1006.53
2018-04-23T01:00:32.208Z,1006.52
2018-04-23T01:01:32.229Z,1006.52
2018-04-23T01:02:32.261Z,1006.54
2018-04-23T01:03:32.264Z,1006.56
2018-04-23T01:04:32.300Z,1006.56
2018-04-23T01:05:32.318Z,1006.54
2018-04-23T01:06:32.333Z,1006.57
2018-04-23T01:07:32.353Z,1006.56
2018-04-23T01:08:32.375Z,1006.58
2018-04-23T01:09:32.409Z,1006.63
2018-04-23T01:10:32.417Z,1006.70
2018-04-23T01:11:32.440Z,1006.72
2018-04-23T01:12:32.457Z,1006.73
2018-04-23T01:13:32.477Z,1006.74
2018-04-23T01:14:32.496Z,1006.76
2018-04-23T01:15:32.518Z,1006.75
2018-04-23T01:16:32.538Z,1006.74
2018-04-23T01:17:32.563Z,1006.79
2018-04-23T01:18:32.639Z,1006.78
2018-04-23T01:19:32.604Z,1006.84
2018-04-23T01:20:32.625Z,1006.84
2018-04-23T01:21:32.653Z,1006.81
2018-04-23T01:22:32.663Z,1006.84
2018-04-23T01:23:32.689Z,1006.82
2018-04-23T01:24:32.707Z,1006.90
2018-04-23T01:25:32.725Z,1006.92
2018-04-23T01:26:32.754Z,1006.93
2018-04-23T01:27:32.771Z,1006.93
2018-04-23T01:28:32.803Z,1006.95
2018-04-23T01:29:32.811Z,1006.95
2018-04-23T01:30:32.834Z,1006.98
2018-04-23T01:31:32.850Z,1007.01
2018-04-23T01:32:32.885Z,1006.91
2018-04-23T01:33:32.903Z,1006.95
2018-04-23T01:34:32.918Z,1006.89
2018-04-23T01:35:32.937Z,1006.92
2018-04-23T01:36:32.959Z,1006.93
2018-04-23T01:37:32.981Z,1006.95
2018-04-23T01:38:32.995Z,1006.94
2018-04-23T01:39:33.023Z,1006.97
2018-04-23T01:40:33.038Z,1007.02
2018-04-23T01:41:33.065Z,1007.08
2018-04-23T01:42:33.083Z,1007.10
2018-04-23T01:43:33.108Z,1007.18
2018-04-23T01:44:33.136Z,1007.15
2018-04-23T01:45:33.147Z,1007.17
2018-04-23T01:46:33.163Z,1007.15
2018-04-23T01:47:33.183Z,1007.20
2018-04-23T01:48:33.211Z,1007.14
2018-04-23T01:49:33.230Z,1007.12
2018-04-23T01:50:33.250Z,1007.19
2018-04-23T01:51:33.272Z,1007.17
2018-04-23T01:52:33.319Z,1007.19
2018-04-23T01:53:33.319Z,1007.23
2018-04-23T01:54:33.340Z,1007.30
2018-04-23T01:55:33.354Z,1007.30
2018-04-23T01:56:33.380Z,1007.26
2018-04-23T01:57:33.397Z,1007.27
2018-04-23T01:58:33.419Z,1007.29
2018-04-23T01:59:33.457Z,1007.32
2018-04-23T02:00:33.462Z,1007.36
2018-04-23T02:01:33.484Z,1007.40
2018-04-23T02:02:33.507Z,1007.45
2018-04-23T02:03:33.524Z,1007.46
2018-04-23T02:04:33.544Z,1007.51
2018-04-23T02:05:33.567Z,1007.50
2018-04-23T02:06:33.591Z,1007.54
2018-04-23T02:07:33.608Z,1007.57
2018-04-23T02:08:33.625Z,1007.54
2018-04-23T02:09:33.654Z,1007.59
2018-04-23T02:10:33.701Z,1007.60
2018-04-23T02:11:33.692Z,1007.63
2018-04-23T02:12:33.719Z,1007.64
2018-04-23T02:13:33.738Z,1007.69
2018-04-23T02:14:33.765Z,1007.65
2018-04-23T02:15:33.777Z,1007.62
2018-04-23T02:16:33.788Z,1007.57
2018-04-23T02:17:33.816Z,1007.58
2018-04-23T02:18:33.841Z,1007.54
2018-04-23T02:19:33.857Z,1007.49
2018-04-23T02:20:33.878Z,1007.45
2018-04-23T02:21:33.900Z,1007.39
2018-04-23T02:22:33.926Z,1007.35
2018-04-23T02:23:33.938Z,1007.32
2018-04-23T02:24:33.960Z,1007.29
2018-04-23T02:25:33.998Z,1007.26
2018-04-23T02:26:34.004Z,1007.25
2018-04-23T02:27:34.023Z,1007.27
2018-04-23T02:28:34.050Z,1007.24
2018-04-23T02:29:34.067Z,1007.26
2018-04-23T02:30:34.084Z,1007.24
2018-04-23T02:31:34.111Z,1007.22
2018-04-23T02:32:34.131Z,1007.20
2018-04-23T02:33:34.151Z,1007.20
2018-04-23T02:34:34.170Z,1007.20
2018-04-23T02:35:34.195Z,1007.23
2018-04-23T02:36:34.215Z,1007.29
2018-04-23T02:37:34.233Z,1007.25
2018-04-23T02:38:34.251Z,1007.26
2018-04-23T02:39:34.271Z,1007.23
2018-04-23T02:40:34.297Z,1007.22
2018-04-23T02:41:34.313Z,1007.25
2018-04-23T02:42:34.342Z,1007.21
2018-04-23T02:43:34.359Z,1007.25
2018-04-23T02:44:34.395Z,1007.27
2018-04-23T02:45:34.415Z,1007.33
2018-04-23T02:46:34.418Z,1007.30
2018-04-23T02:47:34.449Z,1007.29
2018-04-23T02:48:34.468Z,1007.32
2018-04-23T02:49:34.487Z,1007.37
2018-04-23T02:50:34.516Z,1007.37
2018-04-23T02:51:34.514Z,1007.34
2018-04-23T02:52:34.585Z,1007.37
2018-04-23T02:53:34.588Z,1007.35
2018-04-23T02:54:34.610Z,1007.37
2018-04-23T02:55:34.616Z,1007.43
2018-04-23T02:56:34.632Z,1007.45
2018-04-23T02:57:34.661Z,1007.48
2018-04-23T02:58:34.669Z,1007.56
2018-04-23T02:59:34.694Z,1007.61
2018-04-23T03:00:34.713Z,1007.69
2018-04-23T03:01:34.734Z,1007.68
2018-04-23T03:02:34.779Z,1007.69
2018-04-23T03:03:34.776Z,1007.67
2018-04-23T03:04:34.805Z,1007.66
2018-04-23T03:05:34.815Z,1007.66
2018-04-23T03:06:34.837Z,1007.68
2018-04-23T03:07:34.861Z,1007.67
2018-04-23T03:08:34.883Z,1007.62
2018-04-23T03:09:34.913Z,1007.65
2018-04-23T03:10:34.922Z,1007.62
2018-04-23T03:11:34.945Z,1007.65
2018-04-23T03:12:34.966Z,1007.66
2018-04-23T03:13:34.985Z,1007.62
2018-04-23T03:14:35.002Z,1007.61
2018-04-23T03:15:35.030Z,1007.61
2018-04-23T03:16:35.049Z,1007.61
2018-04-23T03:17:35.064Z,1007.60
2018-04-23T03:18:35.091Z,1007.66
2018-04-23T03:19:35.111Z,1007.61
2018-04-23T03:20:35.127Z,1007.61
2018-04-23T03:21:35.154Z,1007.64
2018-04-23T03:22:35.184Z,1007.63
2018-04-23T03:23:35.198Z,1007.64
2018-04-23T03:24:35.215Z,1007.64
2018-04-23T03:25:35.236Z,1007.66
2018-04-23T03:26:35.257Z,1007.66
2018-04-23T03:27:35.273Z,1007.75
2018-04-23T03:28:35.299Z,1007.71
2018-04-23T03:29:35.318Z,1007.70
2018-04-23T03:30:35.340Z,1007.67
2018-04-23T03:31:35.366Z,1007.65
2018-04-23T03:32:35.382Z,1007.64
2018-04-23T03:33:35.396Z,1007.64
2018-04-23T03:34:35.419Z,1007.61
2018-04-23T03:35:35.496Z,1007.59
2018-04-23T03:36:35.467Z,1007.57
2018-04-23T03:37:35.485Z,1007.56
2018-04-23T03:38:35.565Z,1007.56
2018-04-23T03:39:35.525Z,1007.57
2018-04-23T03:40:35.560Z,1007.62
2018-04-23T03:41:35.567Z,1007.61
2018-04-23T03:42:35.586Z,1007.63
2018-04-23T03:43:35.623Z,1007.68
2018-04-23T03:44:35.634Z,1007.65
2018-04-23T03:45:35.652Z,1007.66
2018-04-23T03:46:35.670Z,1007.68
2018-04-23T03:47:35.690Z,1007.71
2018-04-23T03:48:35.717Z,1007.78
2018-04-23T03:49:35.735Z,1007.78
2018-04-23T03:50:35.791Z,1007.87
2018-04-23T03:51:35.770Z,1007.83
2018-04-23T03:52:35.798Z,1007.82
2018-04-23T03:53:35.827Z,1007.83
2018-04-23T03:54:35.837Z,1007.85
2018-04-23T03:55:35.863Z,1007.85
2018-04-23T03:56:35.881Z,1007.84
2018-04-23T03:57:35.908Z,1007.81
2018-04-23T03:58:35.914Z,1007.79
2018-04-23T03:59:35.943Z,1007.78
2018-04-23T04:00:35.966Z,1007.81
2018-04-23T04:01:35.987Z,1007.77
2018-04-23T04:02:36.012Z,1007.76
2018-04-23T04:03:36.024Z,1007.82
2018-04-23T04:04:36.046Z,1007.80
2018-04-23T04:05:36.082Z,1007.80
2018-04-23T04:06:36.098Z,1007.78
2018-04-23T04:07:36.115Z,1007.80
2018-04-23T04:08:36.132Z,1007.84
2018-04-23T04:09:36.160Z,1007.81
2018-04-23T04:10:36.183Z,1007.79
2018-04-23T04:11:36.203Z,1007.80
2018-04-23T04:12:36.213Z,1007.80
2018-04-23T04:13:36.241Z,1007.77
2018-04-23T04:14:36.284Z,1007.72
2018-04-23T04:15:36.278Z,1007.76
2018-04-23T04:16:36.325Z,1007.73
2018-04-23T04:17:36.320Z,1007.71
2018-04-23T04:18:36.349Z,1007.74
2018-04-23T04:19:36.362Z,1007.77
2018-04-23T04:20:36.391Z,1007.78
2018-04-23T04:21:36.405Z,1007.72
2018-04-23T04:22:36.426Z,1007.70
2018-04-23T04:23:36.447Z,1007.75
2018-04-23T04:24:36.472Z,1007.68
2018-04-23T04:25:36.483Z,1007.68
2018-04-23T04:26:36.509Z,1007.67
2018-04-23T04:27:36.526Z,1007.74
2018-04-23T04:28:36.554Z,1007.80
2018-04-23T04:29:36.568Z,1007.78
2018-04-23T04:30:36.598Z,1007.77
2018-04-23T04:31:36.622Z,1007.78
2018-04-23T04:32:36.630Z,1007.80
2018-04-23T04:33:36.648Z,1007.80
2018-04-23T04:34:36.673Z,1007.81
2018-04-23T04:35:36.782Z,1007.76
2018-04-23T04:36:36.714Z,1007.77
2018-04-23T04:37:36.736Z,1007.86
2018-04-23T04:38:36.777Z,1007.93
2018-04-23T04:39:36.777Z,1007.91
2018-04-23T04:40:36.797Z,1007.90
2018-04-23T04:41:36.819Z,1007.89
2018-04-23T04:42:36.849Z,1007.88
2018-04-23T04:43:36.874Z,1007.88
2018-04-23T04:44:36.881Z,1007.84
2018-04-23T04:45:36.902Z,1007.88
2018-04-23T04:46:36.927Z,1007.90
2018-04-23T04:47:36.950Z,1007.86
2018-04-23T04:48:36.967Z,1007.87
2018-04-23T04:49:36.987Z,1007.91
2018-04-23T04:50:37.010Z,1007.93
2018-04-23T04:51:37.027Z,1007.96
2018-04-23T04:52:37.044Z,1007.94
2018-04-23T04:53:37.070Z,1007.96
2018-04-23T04:54:37.089Z,1007.96
2018-04-23T04:55:37.116Z,1007.97
2018-04-23T04:56:37.132Z,1008.01
2018-04-23T04:57:37.157Z,1008.02
2018-04-23T04:58:37.174Z,1008.03
2018-04-23T04:59:37.204Z,1008.03
2018-04-23T05:00:37.217Z,1008.06
2018-04-23T05:01:37.235Z,1008.04
2018-04-23T05:02:37.262Z,1008.07
2018-04-23T05:03:37.281Z,1008.12
2018-04-23T05:04:37.332Z,1008.11
2018-04-23T05:05:37.325Z,1008.12
2018-04-23T05:06:37.342Z,1008.14
2018-04-23T05:07:37.360Z,1008.10
2018-04-23T05:08:37.381Z,1008.04
2018-04-23T05:09:37.402Z,1008.07
2018-04-23T05:10:37.425Z,1008.07
2018-04-23T05:11:37.441Z,1008.11
2018-04-23T05:12:37.465Z,1008.12
2018-04-23T05:13:37.486Z,1008.10
2018-04-23T05:14:37.506Z,1008.12
2018-04-23T05:15:37.528Z,1008.12
2018-04-23T05:16:37.549Z,1008.15
2018-04-23T05:17:37.569Z,1008.19
2018-04-23T05:18:37.590Z,1008.17
2018-04-23T05:19:37.611Z,1008.19
2018-04-23T05:20:37.634Z,1008.16
2018-04-23T05:21:37.653Z,1008.19
2018-04-23T05:22:37.674Z,1008.21
2018-04-23T05:23:37.705Z,1008.25
2018-04-23T05:24:37.712Z,1008.23
2018-04-23T05:25:37.737Z,1008.21
2018-04-23T05:26:37.758Z,1008.27
2018-04-23T05:27:37.791Z,1008.26
2018-04-23T05:28:37.799Z,1008.30
2018-04-23T05:29:37.841Z,1008.34
2018-04-23T05:30:37.845Z,1008.40
2018-04-23T05:31:37.864Z,1008.40
2018-04-23T05:32:37.884Z,1008.46
2018-04-23T05:33:37.900Z,1008.40
2018-04-23T05:34:37.924Z,1008.46
2018-04-23T05:35:37.944Z,1008.42
2018-04-23T05:36:37.966Z,1008.41
2018-04-23T23:52:45.171Z,1012.52
2018-04-23T23:53:45.212Z,1012.56
2018-04-23T23:54:45.196Z,1012.48
2018-04-23T23:55:45.214Z,1012.51
2018-04-23T23:56:45.233Z,1012.50
2018-04-23T23:57:45.256Z,1012.48
2018-04-23T23:58:45.271Z,1012.44
2018-04-23T23:59:45.352Z,1012.50
